• Join FlightAware (Why Join?)
  • Login
  • US Flag 
04:38PM EDT


 

Airport Tracker/Info


-or-


 

Live Flight TrackerFlight Track Log ✈ JBU732 ✈ 01-Jun-2013 ✈ TJBQ / BQN - KMCO

Flight Track Log - Related Links

Times and Time Zones

All times are in EDT time to prevent confusion due to time zone crossing. See the JBU732 flight status page for this flight to view local times or setup timezone preferences in your user account.

Time Position Orientation Groundspeed Altitude Reporting Facility
EDT Latitude Longitude Course Direction KTS MPH feet Rate Location/Type
11:19AM 18.5420 -67.1130 308° West 198 228 3,100  Level FlightAware
11:19AM 18.5530 -67.1360 297° West 199 229 4,100 1,740 Climbing FlightAware
11:20AM 18.5600 -67.1650 284° West 227 261 4,700 1,200 Climbing FlightAware
11:20AM 18.5630 -67.1820 281° West 249 287 5,000 1,260 Climbing FlightAware
11:21AM 18.5730 -67.2110 290° West 280 322 5,600 1,920 Climbing FlightAware
11:21AM 18.5860 -67.2300 306° West 287 330 6,300 3,000 Climbing FlightAware
11:21AM 18.6100 -67.2590 311° West 289 333 7,800 2,940 Climbing FlightAware
11:22AM 18.6360 -67.2910 311° West 300 345 9,100 2,520 Climbing FlightAware
11:22AM 18.6730 -67.3400 309° West 322 371 10,700 1,680 Climbing FlightAware
11:23AM 18.7120 -67.3930 308° West 362 417 11,400 1,620 Climbing FlightAware
11:24AM 18.7550 -67.4490 309° West 375 432 12,900 2,160 Climbing FlightAware
11:25AM 18.8050 -67.5170 308° West 383 441 14,600 2,100 Climbing FlightAware
11:25AM 18.8520 -67.5790 309° West 394 453 16,000 1,920 Climbing FlightAware
11:26AM 18.8950 -67.6360 309° West 400 460 17,200 1,860 Climbing FlightAware
11:27AM 18.9490 -67.7080 308° West 408 470 18,600 1,680 Climbing FlightAware
11:27AM 18.9970 -67.7720 308° West 417 480 19,700 1,740 Climbing FlightAware
11:28AM 19.0500 -67.8440 308° West 420 483 21,100 1,620 Climbing FlightAware
11:29AM 19.0990 -67.9090 309° West 425 489 22,000 1,320 Climbing FlightAware
11:29AM 19.1480 -67.9750 308° West 431 496 22,900 1,380 Climbing FlightAware
11:30AM 19.2030 -68.0480 309° West 433 498 24,000 1,380 Climbing FlightAware
11:31AM 19.2550 -68.1180 308° West 437 503 24,900 1,200 Climbing FlightAware
11:32AM 19.3110 -68.1930 308° West 441 507 25,800 960 Climbing FlightAware
11:32AM 19.3610 -68.2620 308° West 449 517 26,300 840 Climbing FlightAware
11:33AM 19.4150 -68.3340 308° West 454 522 27,000 1,440 Climbing FlightAware
11:34AM 19.4690 -68.4070 308° West 443 510 28,300 1,260 Climbing FlightAware
11:34AM 19.5230 -68.4800 308° West 453 521 28,800 660 Climbing FlightAware
11:35AM 19.5690 -68.5430 308° West 458 527 29,200 900 Climbing FlightAware
11:36AM 19.6330 -68.6290 308° West 458 527 30,100 1,080 Climbing FlightAware
11:36AM 19.6880 -68.7030 308° West 456 525 30,900 1,200 Climbing FlightAware
11:37AM 19.7420 -68.7770 308° West 451 519 31,800 1,200 Climbing FlightAware
11:38AM 19.7960 -68.8500 308° West 449 517 32,600 1,200 Climbing FlightAware
11:38AM 19.8290 -68.8950 308° West 445 512 33,200 1,140 Climbing FlightAware
11:39AM 19.8850 -68.9720 308° West 433 498 34,000 540 Climbing FlightAware
11:40AM 19.9340 -69.0370 309° West 430 495 34,000  Level FlightAware
11:40AM 19.9700 -69.0930 304° West 433 498 34,000  Level FlightAware
11:41AM 20.0390 -69.2090 302° West 439 505 34,000  Level FlightAware
11:42AM 20.0720 -69.2650 302° West 439 505 34,000  Level FlightAware
11:43AM 20.1160 -69.3410 302° West 439 505 34,000  Level FlightAware
11:43AM 20.1810 -69.4420 304° West 442 509 34,000  Level FlightAware
11:44AM 20.2200 -69.5070 303° West 442 509 34,000  Level FlightAware
11:45AM 20.2550 -69.5680 301° West 442 509 34,000  Level FlightAware
11:46AM 20.3130 -69.6670 302° West 442 509 34,000  Level FlightAware
11:46AM 20.3470 -69.7240 302° West 442 509 34,000  Level FlightAware
11:47AM 20.3890 -69.7960 302° West 442 509 34,000  Level FlightAware
11:48AM 20.4230 -69.8550 302° West 442 509 34,000  Level FlightAware
11:49AM 20.4680 -69.9320 302° West 442 509 34,000  Level FlightAware
11:49AM 20.5010 -69.9880 302° West 442 509 34,000  Level FlightAware
11:50AM 20.5580 -70.0860 302° West 442 509 34,000  Level FlightAware
11:51AM 20.5920 -70.1430 303° West 442 509 34,000  Level FlightAware
11:52AM 20.6360 -70.2180 302° West 442 509 34,000  Level FlightAware
11:52AM 20.6690 -70.2750 302° West 442 509 34,000  Level FlightAware
11:53AM 20.7140 -70.3520 302° West 442 509 34,000  Level FlightAware
11:53AM 20.8422 -70.5447 302° West 441 507 34,000  Level Miami Center
11:54AM 20.9094 -70.6547 303° West 441 507 34,000  Level Miami Center
11:55AM 20.9697 -70.7608 301° West 441 507 34,000  Level Miami Center
11:56AM 21.0347 -70.8711 302° West 441 507 34,000  Level Miami Center
11:57AM 21.0972 -70.9794 302° West 441 507 34,000  Level Miami Center
11:58AM 21.1597 -71.0878 302° West 441 507 34,000  Level Miami Center
11:59AM 21.2222 -71.1964 302° West 435 501 34,000  Level Miami Center
12:00PM 21.2819 -71.2961 303° West 435 501 34,000  Level Miami Center
12:01PM 21.3464 -71.4050 302° West 440 506 34,000  Level Miami Center
12:02PM 21.4108 -71.5158 302° West 440 506 34,000  Level Miami Center
12:03PM 21.4750 -71.6225 303° West 440 506 34,000  Level Miami Center
12:04PM 21.5392 -71.7314 302° West 440 506 34,000  Level Miami Center
12:05PM 21.6033 -71.8406 302° West 440 506 34,000  Level Miami Center
12:06PM 21.6653 -71.9500 301° West 440 506 34,000  Level Miami Center
12:07PM 21.7292 -72.0569 303° West 435 501 34,000  Level Miami Center
12:08PM 21.7911 -72.1664 301° West 435 501 34,000  Level Miami Center
12:09PM 21.8569 -72.2736 304° West 435 501 34,000  Level Miami Center
12:10PM 21.9186 -72.3833 301° West 435 501 34,000  Level Miami Center
12:11PM 21.9800 -72.4886 302° West 435 501 34,000  Level Miami Center
12:12PM 22.0394 -72.5986 300° West 429 494 34,000  Level Miami Center
12:13PM 22.1008 -72.7042 302° West 424 488 34,000  Level Miami Center
12:14PM 22.1664 -72.8119 303° West 424 488 34,000  Level Miami Center
12:15PM 22.2256 -72.9200 301° West 424 488 34,000  Level Miami Center
12:16PM 22.2869 -73.0303 301° West 424 488 34,000  Level Miami Center
12:17PM 22.3503 -73.1406 302° West 424 488 34,000  Level Miami Center
12:18PM 22.4133 -73.2467 303° West 424 488 34,000  Level Miami Center
12:19PM 22.4744 -73.3550 301° West 424 488 34,000  Level Miami Center
12:20PM 22.5333 -73.4728 298° West 419 482 34,000  Level Miami Center
12:21PM 22.5964 -73.5789 303° West 414 476 34,000  Level Miami Center
12:22PM 22.6550 -73.6856 301° West 414 476 34,000  Level Miami Center
12:23PM 22.7200 -73.7942 303° West 419 482 34,000  Level Miami Center
12:24PM 22.7764 -73.9033 299° West 419 482 34,000  Level Miami Center
12:25PM 22.8369 -74.0100 302° West 419 482 34,000  Level Miami Center
12:26PM 22.9017 -74.1192 303° West 419 482 34,000  Level Miami Center
12:27PM 22.9622 -74.2306 301° West 419 482 34,000  Level Miami Center
12:28PM 23.0203 -74.3400 300° West 424 488 34,000  Level Miami Center
12:29PM 23.0828 -74.4447 303° West 424 488 34,000  Level Miami Center
12:30PM 23.1431 -74.5567 300° West 424 488 34,000  Level Miami Center
12:31PM 23.2072 -74.6664 302° West 424 488 34,000  Level Miami Center
12:32PM 23.2653 -74.7783 299° West 424 488 34,000  Level Miami Center
12:33PM 23.3294 -74.8881 303° West 424 488 34,000  Level Miami Center
12:34PM 23.3894 -75.0028 300° West 424 488 34,000  Level Miami Center
12:35PM 23.4514 -75.1128 302° West 424 488 34,000  Level Miami Center
12:36PM 23.5153 -75.2228 302° West 424 488 34,000  Level Miami Center
12:37PM 23.5750 -75.3378 300° West 424 488 34,000  Level Miami Center
12:38PM 23.6367 -75.4503 301° West 429 494 34,000  Level Miami Center
12:39PM 23.7003 -75.5608 302° West 429 494 34,000  Level Miami Center
12:40PM 23.7619 -75.6761 300° West 434 499 34,000  Level Miami Center
12:41PM 23.8214 -75.7892 300° West 434 499 34,000  Level Miami Center
12:42PM 23.8828 -75.9044 300° West 434 499 34,000  Level Miami Center
12:43PM 23.9419 -76.0153 300° West 439 505 34,000  Level Miami Center
12:44PM 24.0011 -76.1286 300° West 439 505 34,000  Level Miami Center
12:45PM 24.0622 -76.2397 301° West 439 505 34,000  Level Miami Center
12:46PM 24.1211 -76.3511 300° West 439 505 34,000  Level Miami Center
12:47PM 24.1800 -76.4647 300° West 434 499 34,000  Level Miami Center
12:48PM 24.2408 -76.5786 300° West 434 499 34,000  Level Miami Center
12:49PM 24.2994 -76.6878 301° West 429 494 34,000  Level Miami Center
12:50PM 24.3603 -76.8019 300° West 429 494 34,000  Level Miami Center
12:51PM 24.4167 -76.9136 299° West 429 494 34,000  Level Miami Center
12:52PM 24.4772 -77.0278 300° West 429 494 34,000  Level Miami Center
12:53PM 24.5356 -77.1397 300° West 429 494 34,000  Level Miami Center
12:54PM 24.5958 -77.2564 300° West 429 494 34,000  Level Miami Center
12:55PM 24.6519 -77.3664 299° West 429 494 34,000  Level Miami Center
12:56PM 24.7122 -77.4833 300° West 429 494 34,000  Level Miami Center
12:57PM 24.7703 -77.5958 300° West 429 494 34,000  Level Miami Center
12:58PM 24.8303 -77.7083 300° West 429 494 34,000  Level Miami Center
12:59PM 24.8900 -77.8233 300° West 429 494 34,000  Level Miami Center
01:00PM 24.9500 -77.9361 300° West 429 494 34,000  Level Miami Center
01:01PM 24.9994 -78.0375 298° West 429 494 34,000  Level Miami Center
01:07PM 25.3470 -78.7090 298° West 428 493 34,000  Level FlightAware
01:08PM 25.4010 -78.8160 299° West 429 494 34,000  Level FlightAware
01:09PM 25.4430 -78.8980 300° West 431 496 34,000  Level FlightAware
01:09PM 25.4700 -78.9530 299° West 431 496 34,000  Level FlightAware
01:10PM 25.5120 -79.0170 306° West 434 499 34,000 -300 Level FlightAware
01:11PM 25.5990 -79.1020 319° Northwest 431 496 33,600 -660 Descending FlightAware
01:12PM 25.6760 -79.1720 321° Northwest 435 501 32,900 -840 Descending FlightAware
01:12PM 25.7390 -79.2290 321° Northwest 439 505 32,400 -780 Descending FlightAware
01:13PM 25.8270 -79.3090 321° Northwest 436 502 31,700 -780 Descending FlightAware
01:14PM 25.8970 -79.3740 320° Northwest 444 511 31,100 -840 Descending FlightAware
01:15PM 25.9500 -79.4350 314° West 442 509 30,600 -780 Descending FlightAware
01:16PM 26.0140 -79.5000 318° Northwest 428 493 30,100 -480 Descending FlightAware
01:16PM 26.0790 -79.5560 322° Northwest 432 497 30,000 -120 Descending FlightAware
01:17PM 26.1530 -79.6140 325° Northwest 439 505 30,000  Level FlightAware
01:18PM 26.2300 -79.6620 331° Northwest 437 503 30,000  Level FlightAware
01:18PM 26.2940 -79.7010 331° Northwest 437 503 30,000 -480 Level FlightAware
01:19PM 26.3740 -79.7500 331° Northwest 431 496 29,400 -1,500 Descending FlightAware
01:20PM 26.4510 -79.8020 329° Northwest 419 482 27,800 -2,100 Descending FlightAware
01:20PM 26.5150 -79.8530 325° Northwest 411 473 26,400 -2,100 Descending FlightAware
01:21PM 26.5810 -79.9080 323° Northwest 402 463 24,900 -1,980 Descending FlightAware
01:22PM 26.6130 -79.9440 315° West 395 455 24,200 -840 Descending FlightAware
01:22PM 26.6510 -80.0200 299° West 396 456 24,000 -180 Descending FlightAware
01:23PM 26.6950 -80.0860 307° West 395 455 24,000  Level FlightAware
01:24PM 26.7410 -80.1360 316° Northwest 395 455 24,000  Level FlightAware
01:24PM 26.7900 -80.1820 320° Northwest 395 455 24,000  Level FlightAware
01:25PM 26.8560 -80.2430 320° Northwest 395 455 24,000  Level FlightAware
01:26PM 26.9130 -80.2970 320° Northwest 395 455 24,000  Level FlightAware
01:27PM 26.9600 -80.3420 320° Northwest 395 455 24,000  Level FlightAware
01:27PM 27.0040 -80.3830 320° Northwest 395 455 24,000 -1,260 Level FlightAware
01:30PM 27.3160 -80.5990 328° Northwest 19,500 -1,500 Descending FlightAware
01:31PM 27.3860 -80.6570 324° Northwest 362 417 18,700 -540 Descending FlightAware
01:32PM 27.4270 -80.6920 323° Northwest 362 417 18,700  Level FlightAware
01:32PM 27.4830 -80.7390 323° Northwest 362 417 18,700  Level FlightAware
01:33PM 27.5240 -80.7740 323° Northwest 362 417 18,700 -1,500 Level FlightAware
01:38PM 28.0040 -81.1350 326° Northwest 386 444 10,900 -1,500 Descending FlightAware
01:38PM 28.0810 -81.1600 344° North 382 440 10,700 -360 Descending FlightAware
01:39PM 28.1570 -81.1860 343° North 358 412 10,400 -180 Descending FlightAware
01:40PM 28.2260 -81.2100 343° North 358 412 10,400 -540 Level FlightAware
01:44PM 28.4600 -81.1870 North 235 270 8,000 -660 Descending FlightAware
01:45PM 28.4880 -81.1870 360° North 223 257 7,700 -360 Descending FlightAware
01:45PM 28.5240 -81.1880 359° North 218 251 7,600 -720 Descending FlightAware
01:47PM 28.5960 -81.2000 352° North 215 247 6,000 -1,560 Descending FlightAware
01:48PM 28.6390 -81.2540 312° West 3,800 -2,160 Descending FlightAware
01:49PM 28.6310 -81.3060 260° West 209 241 2,800 -1,620 Descending FlightAware
01:49PM 28.6200 -81.3160 219° Southwest 205 236 2,600 -600 Descending FlightAware
01:49PM 28.5950 -81.3280 203° Southwest 205 236 2,400 -240 Descending FlightAware
01:50PM 28.5700 -81.3280 180° South 202 232 2,400 -120 Level FlightAware
01:50PM 28.5530 -81.3280 180° South 192 221 2,300 -420 Descending FlightAware
01:51PM 28.5410 -81.3280 180° South 190 219 2,000 -900 Descending FlightAware
01:51PM 28.5190 -81.3280 180° South 177 204 1,500 -540 Descending FlightAware
01:52PM 28.4990 -81.3270 177° South 177 204 1,500  Level FlightAware